Wakatake Maru — JL6603 — position and weather

sailwx.info

Track history (hours):
 
Tides and Currents Weather Stations Pressure Air Temp Water Temp Dewpoint Dewpoint Depression Visibility Wind Speed Wind Dir Waves Ship Positions

Wakatake Maru

Last reported at 2018-Jun-22 12:51 UTC. Time now 2018-Jun-25 09:37 UTC.
Position N 35°15' E 139°46'.

Length 73 m; draft 4 m.

Type: Cargo ship. MMSI: 431501662.

Date/timePositionNaut miles runAvg speedWind from/ knotsBaromVisibWave heightAir tempDewpointWater temp
2018-Jun-22 12:51N 35°15' E 139°46'411.6
2018-Jun-22 12:31N 35°18' E 139°44'612.1
2018-Jun-22 12:01N 35°23' E 139°40'2 3.7
2018-Jun-22 11:30N 35°24' E 139°37'0 0.0
2018-Jun-22 11:01N 35°24' E 139°37'0 0.0
2018-Jun-22 10:31N 35°24' E 139°37'0 0.0
2018-Jun-22 10:00N 35°24' E 139°37'0 0.0
2018-Jun-22 09:31N 35°24' E 139°37'0 0.0
2018-Jun-22 09:01N 35°24' E 139°37'0 0.0
2018-Jun-22 08:30N 35°24' E 139°37'0 0.1
2018-Jun-22 08:01N 35°24' E 139°37'1 1.9
2018-Jun-22 07:31N 35°24' E 139°39'5 8.9
2018-Jun-22 07:00N 35°25' E 139°44'612.4
2018-Jun-22 06:30N 35°29' E 139°50'5 0.4
2018-Jun-21 16:55N 35°31' E 139°56'511.2
2018-Jun-21 16:30N 35°28' E 139°51'611.8
2018-Jun-21 16:01N 35°24' E 139°46'611.1
2018-Jun-21 15:30N 35°18' E 139°44'511.1
2018-Jun-21 15:01N 35°13' E 139°47'  
2018-Jun-17 20:06N 35°14' E 139°46'112.4
2018-Jun-17 20:00N 35°15' E 139°46'612.3
2018-Jun-17 19:30N 35°20' E 139°42'510.3
2018-Jun-17 19:00N 35°24' E 139°37'0 0.1
2018-Jun-17 18:30N 35°24' E 139°37'0 0.0
2018-Jun-17 17:59N 35°24' E 139°37'0 0.0
2018-Jun-17 17:30N 35°24' E 139°37'0 0.0
2018-Jun-17 17:00N 35°24' E 139°37'0 0.0
2018-Jun-17 16:30N 35°24' E 139°37'0 0.0
2018-Jun-17 16:00N 35°24' E 139°37'0 0.0
2018-Jun-17 15:30N 35°24' E 139°37'0 0.0
2018-Jun-17 15:00N 35°24' E 139°37'0 0.0
2018-Jun-17 14:30N 35°24' E 139°37'4 8.1
2018-Jun-17 14:00N 35°22' E 139°42'612.1
2018-Jun-17 13:30N 35°17' E 139°46'612.0
2018-Jun-17 13:00N 35°11' E 139°47'5 0.1
2018-Jun-15 09:25N 35°15' E 139°46'511.5
2018-Jun-15 09:01N 35°19' E 139°43'612.0
2018-Jun-15 08:31N 35°24' E 139°39'1 1.7
2018-Jun-15 07:58N 35°24' E 139°37'0 0.0
2018-Jun-15 07:30N 35°24' E 139°37'0 0.0
2018-Jun-15 07:00N 35°24' E 139°37'0 0.0
2018-Jun-15 06:31N 35°24' E 139°37'0 0.0
2018-Jun-15 06:00N 35°24' E 139°37'0 0.0
2018-Jun-15 05:30N 35°24' E 139°37'0 0.0
2018-Jun-15 04:59N 35°24' E 139°37'0 0.0
2018-Jun-15 04:28N 35°24' E 139°37'0 0.0
2018-Jun-15 04:00N 35°24' E 139°37'0 0.0
2018-Jun-15 03:30N 35°24' E 139°37'0 0.0
2018-Jun-15 03:00N 35°24' E 139°37'0 0.0
2018-Jun-15 02:30N 35°24' E 139°37'0 0.0
2018-Jun-15 02:01N 35°24' E 139°37'0 0.0
2018-Jun-15 01:31N 35°24' E 139°37'0 0.0
2018-Jun-15 00:59N 35°24' E 139°37'0 0.0
2018-Jun-15 00:31N 35°24' E 139°37'0 0.0
2018-Jun-14 23:58N 35°24' E 139°37'0 0.0
2018-Jun-14 23:30N 35°24' E 139°37'0 0.0
2018-Jun-14 23:00N 35°24' E 139°37'0 0.0
2018-Jun-14 22:30N 35°24' E 139°37'4 7.4
2018-Jun-14 22:00N 35°22' E 139°41'510.3
2018-Jun-14 21:30N 35°17' E 139°45'510.7
2018-Jun-14 21:00N 35°12' E 139°47'  
Track history (hours):
 
Tides and Currents Weather Stations Pressure Air Temp Water Temp Dewpoint Dewpoint Depression Visibility Wind Speed Wind Dir Waves Ship Positions

Wakatake Maru

Last reported at 2018-Jun-22 12:51 UTC. Time now 2018-Jun-25 09:37 UTC.
Position N 35°15' E 139°46'.

Length 73 m; draft 4 m.

Type: Cargo ship. MMSI: 431501662.

Date/timePositionNaut miles runAvg speedWind from/ knotsBaromVisibWave heightAir tempDewpointWater temp
2018-Jun-22 12:51N 35°15' E 139°46'411.6
2018-Jun-22 12:31N 35°18' E 139°44'612.1
2018-Jun-22 12:01N 35°23' E 139°40'2 3.7
2018-Jun-22 11:30N 35°24' E 139°37'0 0.0
2018-Jun-22 11:01N 35°24' E 139°37'0 0.0
2018-Jun-22 10:31N 35°24' E 139°37'0 0.0
2018-Jun-22 10:00N 35°24' E 139°37'0 0.0
2018-Jun-22 09:31N 35°24' E 139°37'0 0.0
2018-Jun-22 09:01N 35°24' E 139°37'0 0.0
2018-Jun-22 08:30N 35°24' E 139°37'0 0.1
2018-Jun-22 08:01N 35°24' E 139°37'1 1.9
2018-Jun-22 07:31N 35°24' E 139°39'5 8.9
2018-Jun-22 07:00N 35°25' E 139°44'612.4
2018-Jun-22 06:30N 35°29' E 139°50'5 0.4
2018-Jun-21 16:55N 35°31' E 139°56'511.2
2018-Jun-21 16:30N 35°28' E 139°51'611.8
2018-Jun-21 16:01N 35°24' E 139°46'611.1
2018-Jun-21 15:30N 35°18' E 139°44'511.1
2018-Jun-21 15:01N 35°13' E 139°47'  
2018-Jun-17 20:06N 35°14' E 139°46'112.4
2018-Jun-17 20:00N 35°15' E 139°46'612.3
2018-Jun-17 19:30N 35°20' E 139°42'510.3
2018-Jun-17 19:00N 35°24' E 139°37'0 0.1
2018-Jun-17 18:30N 35°24' E 139°37'0 0.0
2018-Jun-17 17:59N 35°24' E 139°37'0 0.0
2018-Jun-17 17:30N 35°24' E 139°37'0 0.0
2018-Jun-17 17:00N 35°24' E 139°37'0 0.0
2018-Jun-17 16:30N 35°24' E 139°37'0 0.0
2018-Jun-17 16:00N 35°24' E 139°37'0 0.0
2018-Jun-17 15:30N 35°24' E 139°37'0 0.0
2018-Jun-17 15:00N 35°24' E 139°37'0 0.0
2018-Jun-17 14:30N 35°24' E 139°37'4 8.1
2018-Jun-17 14:00N 35°22' E 139°42'612.1
2018-Jun-17 13:30N 35°17' E 139°46'612.0
2018-Jun-17 13:00N 35°11' E 139°47'5 0.1
2018-Jun-15 09:25N 35°15' E 139°46'511.5
2018-Jun-15 09:01N 35°19' E 139°43'612.0
2018-Jun-15 08:31N 35°24' E 139°39'1 1.7
2018-Jun-15 07:58N 35°24' E 139°37'0 0.0
2018-Jun-15 07:30N 35°24' E 139°37'0 0.0
2018-Jun-15 07:00N 35°24' E 139°37'0 0.0
2018-Jun-15 06:31N 35°24' E 139°37'0 0.0
2018-Jun-15 06:00N 35°24' E 139°37'0 0.0
2018-Jun-15 05:30N 35°24' E 139°37'0 0.0
2018-Jun-15 04:59N 35°24' E 139°37'0 0.0
2018-Jun-15 04:28N 35°24' E 139°37'0 0.0
2018-Jun-15 04:00N 35°24' E 139°37'0 0.0
2018-Jun-15 03:30N 35°24' E 139°37'0 0.0
2018-Jun-15 03:00N 35°24' E 139°37'0 0.0
2018-Jun-15 02:30N 35°24' E 139°37'0 0.0
2018-Jun-15 02:01N 35°24' E 139°37'0 0.0
2018-Jun-15 01:31N 35°24' E 139°37'0 0.0
2018-Jun-15 00:59N 35°24' E 139°37'0 0.0
2018-Jun-15 00:31N 35°24' E 139°37'0 0.0
2018-Jun-14 23:58N 35°24' E 139°37'0 0.0
2018-Jun-14 23:30N 35°24' E 139°37'0 0.0
2018-Jun-14 23:00N 35°24' E 139°37'0 0.0
2018-Jun-14 22:30N 35°24' E 139°37'4 7.4
2018-Jun-14 22:00N 35°22' E 139°41'510.3
2018-Jun-14 21:30N 35°17' E 139°45'510.7
2018-Jun-14 21:00N 35°12' E 139°47'  

Dump ship's entire track history